Potsdam, NY

12:40 AM EDT on July 02, 2015 (GMT -0400)
NonFedAWOS | | Change Station
CLOSE
Current Station
Personal Weather Station
Location: Potsdam, NY
Elevation: 473 ft
Nearby Weather Stations

Elev 473 ft 44.68 °N, 74.95 °W | Updated 20 minutes ago

Mostly Cloudy
Mostly Cloudy
57 °F
Feels Like 57 °F
N
13
Wind Variable Wind from NW
Gusts 16.0 mph

Today
High -- | Low -- °F
--% Chance of Precip.
Yesterday
High -- | Low -- °F
Precip. -- in
5:18 AM 8:48 PM
Full, 100% visible
Pressure 29.81 in
Visibility 10.0 miles
Clouds Mostly Cloudy 2400 ft
Dew Point 55 °F
Humidity 94%
Rainfall in
Snow Depth Not available.
UV 0 out of 12
Pollen .70 out of 12
Air Quality Not available.
Flu Activity Not available.
METAR KMSS 020353Z AUTO 28013KT 10SM BKN024 15/11 A2981 RMK AO2 SLP095 T01500106

More Conditions Fewer Conditions

Pressure 29.81 in
Visibility 10.0 miles
Clouds Mostly Cloudy 2400 ft
Dew Point 55 °F
Humidity 94%
Rainfall in
Snow Depth Not available.
UV 0 out of 12
Pollen .70 out of 12
Air Quality Not available.
Flu Activity Not available.
METAR KMSS 020353Z AUTO 28013KT 10SM BKN024 15/11 A2981 RMK AO2 SLP095 T01500106

More Conditions Fewer Conditions

10-Day Weather Forecast

×

Almanac

Astronomy

Jul. 02, 2015 Rise Set
Actual Time
Civil Twilight
Nautical Twilight
Astronomical Twilight
Moon
Length of Visible Light
Length of Day
Tomorrow will be .
, % of the Moon is Illuminated

Today's Extremes

State Highs State Lows

Community

WunderPhotos

Upload Photos

1,834,421 photos uploaded!

WunderBlogs® & News

Nearby

Air Quality

  Air Quality AQ Index Pollutant
Not available.

Snow Depth

Station Depth Elevation

Earthquake Activity

City Distance Mag. Time & Date
Minimum magnitude displayed is 2.5.

Coastal Water Temperatures

Place Temperature

Stations

Nearby Weather Stations

Station Location Temp. Windchill Dew Point Humidity Wind Precip. Elev Updated Type